Butler, Texas
Current Conditions -  °F | °C
As of 8:35 AM on Thursday 30 Oct 2014 (Local Time) from KPSN Reporting Station
Clear Clear  
Wind Chill: 56°   Ceiling: Unl
Heat Index: 56°   Visibility: 10mi
Dew Point: 48°   Wind: 5mph
Humidity: 74%   Direction: 120°ESE
Pressure: 30.17"   Gusts: NA
Location:  31.5818°N, 95.8921°W
Report Text: KPSN 301335Z AUTO 12004KT 10SM CLR 13/08 A3017 RMK AO2 T01350089
Loading
Personal Weather Stations






























Interactive Weather Map
Tropical Storm Tracking
New forecast layout! Learn more

10-Day Weather Forecast

Advertisements
Track Severe Weather on mobile